Time;durP1;ratioP1;P1;durP2;ratioP2;P2;SDS_P1;SDS_P2;PMS_P1;PMS_P2;Temp;Humidity;BMP_temperature;BMP_pressure;BME280_temperature;BME280_humidity;BME280_pressure;Samples;Min_cycle;Max_cycle;Signal;HPM_P1;HPM_P2
2021/09/22 00:02:23;;;;;;;13.47;12.27;;;8.90;99.90;;;9.74;83.54;99143.13;5186139;28;20199;-61
2021/09/22 00:04:58;;;;;;;13.37;12.17;;;9.00;99.90;;;9.73;83.58;99141.38;5186741;28;20222;-61
2021/09/22 00:07:31;;;;;;;14.03;12.73;;;8.80;99.90;;;9.70;82.88;99136.91;5186539;28;20588;-61
2021/09/22 00:10:06;;;;;;;14.33;12.93;;;8.80;99.90;;;9.63;84.56;99138.81;5185131;28;20206;-62
2021/09/22 00:12:39;;;;;;;14.13;12.73;;;8.80;99.90;;;9.65;83.90;99132.19;5177298;28;20301;-61
2021/09/22 00:15:14;;;;;;;14.43;13.13;;;8.90;99.90;;;9.63;84.53;99143.94;5187492;28;20218;-61
2021/09/22 00:17:47;;;;;;;13.40;12.30;;;8.80;99.90;;;9.61;83.76;99141.22;5187364;28;20230;-60
2021/09/22 00:20:25;;;;;;;16.07;14.40;;;8.80;99.90;;;9.57;83.31;99157.06;5187023;28;20203;-61
2021/09/22 00:23:08;;;;;;;15.40;13.97;;;8.70;99.90;;;9.51;83.26;99148.03;5186585;28;20215;-61
2021/09/22 00:25:41;;;;;;;14.30;13.00;;;8.70;99.90;;;9.47;84.52;99152.91;5185032;28;20268;-62
2021/09/22 00:28:14;;;;;;;14.30;13.03;;;8.70;99.90;;;9.53;83.84;99151.59;5187208;28;20651;-61
2021/09/22 00:30:47;;;;;;;14.63;13.33;;;8.70;99.90;;;9.45;84.20;99143.31;5187360;28;20233;-61
2021/09/22 00:33:21;;;;;;;14.93;13.53;;;8.60;99.90;;;9.44;84.05;99144.06;5187011;28;20659;-61
2021/09/22 00:35:55;;;;;;;14.63;13.23;;;8.60;99.90;;;9.46;84.46;99135.78;5187445;28;20600;-61
2021/09/22 00:38:28;;;;;;;14.17;12.93;;;8.60;99.90;;;9.51;84.45;99138.72;5185972;28;20226;-62
2021/09/22 00:41:01;;;;;;;14.47;13.17;;;8.70;99.90;;;9.46;84.18;99132.34;5184698;28;20733;-61
2021/09/22 00:43:34;;;;;;;14.77;13.37;;;8.70;99.90;;;9.41;84.57;99131.97;5186155;28;20201;-62
2021/09/22 00:46:07;;;;;;;14.17;12.93;;;8.70;99.90;;;9.45;84.76;99133.13;5187083;28;20230;-60
2021/09/22 00:48:41;;;;;;;14.50;13.13;;;8.60;99.90;;;9.40;84.08;99125.06;5185539;28;20226;-61
2021/09/22 00:51:15;;;;;;;14.20;12.90;;;8.60;99.90;;;9.37;84.70;99132.47;5186336;28;20203;-61
2021/09/22 00:53:48;;;;;;;14.60;13.30;;;8.50;99.90;;;9.26;84.34;99130.69;5186054;28;20206;-60
2021/09/22 00:56:22;;;;;;;13.63;12.53;;;8.50;99.90;;;9.20;84.69;99125.97;5182610;28;20198;-61
2021/09/22 00:58:55;;;;;;;15.03;13.60;;;8.40;99.90;;;9.21;85.31;99127.78;5184784;28;20224;-60
2021/09/22 01:01:28;;;;;;;15.50;14.00;;;8.50;99.90;;;9.21;84.97;99119.22;5185466;28;20210;-60
2021/09/22 01:04:03;;;;;;;14.80;13.47;;;8.50;99.90;;;9.18;85.38;99126.63;5186399;28;20227;-61
2021/09/22 01:06:37;;;;;;;15.83;14.33;;;8.40;99.90;;;9.16;84.77;99125.63;5183028;28;20257;-61
2021/09/22 01:09:15;;;;;;;15.70;14.23;;;8.40;99.90;;;9.12;84.97;99126.13;5184819;28;20683;-58
2021/09/22 01:11:48;;;;;;;15.60;14.10;;;8.30;99.90;;;9.09;85.53;99124.19;5185507;28;20327;-62
2021/09/22 01:14:23;;;;;;;14.53;13.13;;;8.30;99.90;;;9.12;85.98;99137.19;5184422;28;20199;-60
2021/09/22 01:16:56;;;;;;;15.33;13.90;;;8.30;99.90;;;9.17;85.99;99141.03;5184425;28;20201;-61
2021/09/22 01:19:29;;;;;;;15.43;14.03;;;8.40;99.90;;;9.17;85.59;99142.69;5184849;28;20816;-60
2021/09/22 01:22:04;;;;;;;15.70;14.03;;;8.40;99.90;;;9.21;85.63;99143.09;5186097;28;20213;-61
2021/09/22 01:24:37;;;;;;;15.70;14.10;;;8.40;99.90;;;9.22;85.27;99144.88;5183374;28;20206;-61
2021/09/22 01:27:10;;;;;;;15.77;14.37;;;8.40;99.90;;;9.23;85.36;99139.00;5184793;28;20545;-60
2021/09/22 01:29:45;;;;;;;15.33;13.93;;;8.50;99.90;;;9.20;85.96;99142.94;5184438;28;20298;-61
2021/09/22 01:32:19;;;;;;;15.63;14.23;;;8.50;99.90;;;9.27;85.86;99147.81;5186241;28;20224;-60
2021/09/22 01:34:52;;;;;;;16.20;14.70;;;8.50;99.90;;;9.28;85.64;99146.16;5183775;28;20195;-61
2021/09/22 01:37:26;;;;;;;15.87;14.37;;;8.50;99.90;;;9.28;84.81;99144.47;5185301;28;20642;-59
2021/09/22 01:39:59;;;;;;;14.63;13.33;;;8.50;99.90;;;9.24;84.64;99133.16;5182407;28;20209;-59
2021/09/22 01:42:32;;;;;;;14.90;13.57;;;8.50;99.90;;;9.23;84.67;99145.75;5185776;28;20206;-60
2021/09/22 01:45:08;;;;;;;14.83;13.47;;;8.40;99.90;;;9.22;84.37;99136.31;5184806;28;20217;-60
2021/09/22 01:47:41;;;;;;;14.77;13.27;;;8.40;99.90;;;9.19;84.96;99138.63;5184947;28;20221;-59
2021/09/22 01:50:17;;;;;;;14.87;13.47;;;8.30;99.90;;;9.10;85.58;99150.59;5185264;28;20199;-60
2021/09/22 01:52:52;;;;;;;14.87;13.53;;;8.30;99.90;;;9.09;85.58;99146.25;5183583;28;20210;-61
2021/09/22 01:55:25;;;;;;;15.33;13.83;;;8.30;99.90;;;8.98;86.03;99143.69;5180462;28;20221;-61
2021/09/22 01:57:58;;;;;;;14.77;13.47;;;8.30;99.90;;;8.97;85.63;99141.03;5181997;28;20226;-61
2021/09/22 02:00:32;;;;;;;14.97;13.47;;;8.20;99.90;;;8.96;85.24;99145.25;5182843;28;20198;-61
2021/09/22 02:03:05;;;;;;;13.60;12.50;;;8.20;99.90;;;8.93;85.98;99133.91;5181700;28;20261;-61
2021/09/22 02:05:39;;;;;;;13.77;12.67;;;8.20;99.90;;;8.91;85.38;99131.22;5185221;28;20205;-61
2021/09/22 02:08:14;;;;;;;15.67;14.33;;;8.10;99.90;;;8.95;84.60;99133.25;5182313;28;20309;-61
2021/09/22 02:10:47;;;;;;;16.03;14.57;;;8.10;99.90;;;8.92;84.67;99143.19;5183928;28;20210;-60
2021/09/22 02:13:20;;;;;;;16.60;14.97;;;8.20;99.90;;;8.89;85.04;99142.94;5179060;28;20293;-61
2021/09/22 02:15:53;;;;;;;15.97;14.50;;;8.10;99.90;;;8.91;85.21;99133.75;5185021;28;20289;-59
2021/09/22 02:18:26;;;;;;;15.37;13.97;;;8.10;99.90;;;8.88;85.74;99146.25;5182899;28;20272;-60
2021/09/22 02:20:59;;;;;;;15.70;14.20;;;8.20;99.90;;;8.86;86.12;99140.13;5184847;28;20212;-61
2021/09/22 02:23:34;;;;;;;15.70;14.20;;;8.20;99.90;;;8.85;85.47;99125.59;5181871;28;20198;-60
2021/09/22 02:26:07;;;;;;;15.73;14.33;;;8.20;99.90;;;8.84;85.13;99128.00;5179939;28;20233;-61
2021/09/22 02:28:41;;;;;;;15.13;13.73;;;8.10;99.90;;;8.78;85.42;99128.38;5183710;28;20229;-61
2021/09/22 02:31:14;;;;;;;15.70;14.30;;;8.00;99.90;;;8.76;84.68;99119.75;5184767;28;20635;-61
2021/09/22 02:33:47;;;;;;;15.30;13.90;;;7.90;99.90;;;8.73;84.69;99122.03;5182916;28;20284;-60
2021/09/22 02:36:20;;;;;;;15.47;14.17;;;7.90;99.90;;;8.64;85.60;99111.94;5184660;28;20205;-60
2021/09/22 02:38:55;;;;;;;14.37;13.07;;;7.90;99.90;;;8.60;85.44;99117.53;5181961;28;20229;-60
2021/09/22 02:41:28;;;;;;;14.47;13.17;;;7.80;99.90;;;8.59;84.41;99114.88;5182489;28;20205;-60
2021/09/22 02:44:01;;;;;;;14.77;13.27;;;7.70;99.90;;;8.59;84.26;99125.06;5184519;28;20712;-59
2021/09/22 02:46:34;;;;;;;15.30;13.90;;;7.70;99.90;;;8.52;84.27;99119.41;5180962;28;20223;-61
2021/09/22 02:49:08;;;;;;;15.47;13.77;;;7.70;99.90;;;8.51;84.53;99115.09;5182933;28;20311;-60
2021/09/22 02:51:41;;;;;;;14.97;13.57;;;7.60;99.90;;;8.45;85.44;99118.78;5184460;28;20411;-60
2021/09/22 02:54:15;;;;;;;14.40;13.00;;;7.60;99.90;;;8.44;85.97;99115.34;5181726;28;20199;-58
2021/09/22 02:56:49;;;;;;;14.27;12.97;;;7.70;99.90;;;8.41;86.73;99117.59;5182696;28;20296;-61
2021/09/22 02:59:22;;;;;;;14.63;13.30;;;7.80;99.90;;;8.42;86.25;99121.06;5183682;28;20309;-60
2021/09/22 03:01:55;;;;;;;14.67;13.37;;;7.70;99.90;;;8.43;85.91;99118.63;5183747;28;20206;-61
2021/09/22 03:04:29;;;;;;;14.17;12.87;;;7.80;99.90;;;8.44;85.50;99123.00;5182351;28;20569;-60
2021/09/22 03:07:02;;;;;;;14.87;13.37;;;7.70;99.90;;;8.46;85.39;99124.00;5181799;28;20222;-60
2021/09/22 03:09:37;;;;;;;13.67;12.47;;;7.70;99.90;;;8.43;85.32;99123.75;5180842;28;20594;-60
2021/09/22 03:12:10;;;;;;;14.00;12.77;;;7.70;99.90;;;8.49;85.25;99128.47;5183812;28;20206;-61
2021/09/22 03:14:43;;;;;;;14.37;13.00;;;7.80;99.90;;;8.50;84.59;99125.19;5183913;28;20202;-59
2021/09/22 03:17:16;;;;;;;14.33;13.03;;;7.70;99.90;;;8.47;84.55;99123.25;5183582;28;20297;-60
2021/09/22 03:19:50;;;;;;;15.13;13.63;;;7.70;99.90;;;8.46;84.96;99118.91;5175904;28;20202;-60
2021/09/22 03:22:23;;;;;;;15.07;13.57;;;7.60;99.90;;;8.47;85.38;99115.63;5182747;28;20213;-60
2021/09/22 03:24:58;;;;;;;15.43;14.00;;;7.70;99.90;;;8.34;86.05;99123.81;5181972;28;20214;-59
2021/09/22 03:27:31;;;;;;;15.10;13.70;;;7.60;99.90;;;8.33;86.07;99110.97;5169222;28;20226;-59
2021/09/22 03:30:07;;;;;;;14.80;13.53;;;7.60;99.90;;;8.26;85.31;99113.72;5184187;28;20282;-58
2021/09/22 03:32:40;;;;;;;14.17;12.77;;;7.40;99.90;;;8.24;84.73;99115.22;5177079;28;20202;-60
2021/09/22 03:35:14;;;;;;;14.93;13.43;;;7.40;99.90;;;8.19;85.66;99122.50;5183834;28;20203;-60
2021/09/22 03:37:47;;;;;;;15.43;13.93;;;7.40;99.90;;;8.22;84.73;99129.50;5175227;28;20225;-60
2021/09/22 03:40:21;;;;;;;14.67;13.27;;;7.40;99.90;;;8.20;85.35;99138.66;5176903;28;20224;-60
2021/09/22 03:42:56;;;;;;;15.90;14.50;;;7.40;99.90;;;8.21;85.42;99138.81;5181170;28;20650;-60
2021/09/22 03:45:29;;;;;;;15.57;14.17;;;7.40;99.90;;;8.19;86.01;99139.44;5183225;28;20209;-61
2021/09/22 03:48:03;;;;;;;15.83;14.33;;;7.40;99.90;;;8.13;85.81;99143.22;5183348;28;20249;-59
2021/09/22 03:50:36;;;;;;;14.60;13.23;;;7.30;99.90;;;8.08;85.12;99149.56;5182241;28;20203;-60
2021/09/22 03:53:09;;;;;;;15.57;14.07;;;7.20;99.90;;;8.01;84.70;99142.16;5181268;28;20198;-60
2021/09/22 03:55:44;;;;;;;13.83;12.60;;;7.10;99.90;;;7.97;85.14;99146.84;5176759;28;20206;-61
2021/09/22 03:58:17;;;;;;;15.43;14.03;;;7.10;99.90;;;8.00;85.75;99144.56;5182868;28;20666;-59
2021/09/22 04:00:51;;;;;;;14.30;12.90;;;7.20;99.90;;;7.95;85.82;99148.34;5182654;28;20205;-60
2021/09/22 04:03:24;;;;;;;14.60;13.20;;;7.20;99.90;;;7.95;86.39;99156.88;5182835;28;20201;-60
2021/09/22 04:05:57;;;;;;;14.30;12.93;;;7.20;99.90;;;7.99;86.21;99153.88;5183638;28;20229;-59
2021/09/22 04:08:30;;;;;;;15.10;13.70;;;7.30;99.90;;;8.04;85.89;99159.34;5180758;28;20313;-60
2021/09/22 04:11:05;;;;;;;14.03;12.73;;;7.30;99.90;;;8.04;85.38;99155.16;5177795;28;20634;-60
2021/09/22 04:13:38;;;;;;;14.47;13.27;;;7.20;99.90;;;8.07;85.90;99155.44;5182835;28;20717;-57
2021/09/22 04:16:12;;;;;;;15.70;14.20;;;7.30;99.90;;;8.01;85.62;99152.34;5182537;28;20209;-61
2021/09/22 04:18:45;;;;;;;13.83;12.63;;;7.20;99.90;;;7.98;85.53;99152.06;5182849;28;20242;-60
2021/09/22 04:21:18;;;;;;;16.00;14.57;;;7.20;99.90;;;8.01;85.58;99147.25;5182827;28;20199;-60
2021/09/22 04:23:51;;;;;;;16.13;14.63;;;7.20;99.90;;;7.95;86.13;99149.25;5179407;28;20594;-60
2021/09/22 04:26:26;;;;;;;15.60;14.10;;;7.20;99.90;;;7.94;85.54;99144.91;5180756;28;20203;-60
2021/09/22 04:28:59;;;;;;;15.73;14.40;;;7.20;99.90;;;7.93;84.78;99154.97;5182993;28;20248;-59
2021/09/22 04:31:33;;;;;;;15.27;13.77;;;7.20;99.90;;;7.92;84.97;99151.50;5183798;28;20194;-60
2021/09/22 04:34:06;;;;;;;15.70;14.27;;;7.10;99.90;;;7.86;85.87;99156.97;5181720;28;20569;-60
2021/09/22 04:36:41;;;;;;;15.73;14.10;;;7.10;99.90;;;7.83;85.85;99163.44;5182215;28;20290;-59
2021/09/22 04:39:15;;;;;;;15.93;14.33;;;7.10;99.90;;;7.84;86.36;99162.66;5178527;28;20603;-59
2021/09/22 04:41:49;;;;;;;16.00;14.47;;;7.10;99.90;;;7.85;86.20;99159.38;5185336;28;20211;-58
2021/09/22 04:44:23;;;;;;;15.67;14.17;;;7.10;99.90;;;7.86;85.80;99156.06;5186740;28;20209;-60
2021/09/22 04:46:56;;;;;;;16.43;14.83;;;7.10;99.90;;;7.83;86.12;99156.69;5185836;28;20293;-58
2021/09/22 04:49:29;;;;;;;14.20;12.90;;;7.20;99.90;;;7.87;85.56;99152.78;5176750;28;20665;-58
2021/09/22 04:52:02;;;;;;;15.33;13.77;;;7.10;99.90;;;7.90;86.07;99155.59;5186076;28;20206;-61
2021/09/22 04:54:35;;;;;;;15.37;13.97;;;7.20;99.90;;;7.89;84.99;99159.78;5178921;28;20203;-60
2021/09/22 04:57:09;;;;;;;15.30;13.90;;;7.10;99.90;;;7.89;85.00;99161.44;5185220;28;20887;-60
2021/09/22 04:59:42;;;;;;;15.57;14.23;;;7.10;99.90;;;7.90;85.20;99159.03;5177366;28;20209;-58
2021/09/22 05:02:15;;;;;;;16.07;14.43;;;7.10;99.90;;;7.89;85.99;99158.88;5187053;28;20651;-60
2021/09/22 05:04:49;;;;;;;15.53;14.13;;;7.10;99.90;;;7.88;85.52;99154.56;5187096;28;20253;-60
2021/09/22 05:07:22;;;;;;;15.77;14.17;;;7.20;99.90;;;7.86;84.93;99159.50;5184717;28;20199;-62
2021/09/22 05:09:55;;;;;;;15.87;14.47;;;7.10;99.90;;;7.85;84.85;99164.47;5186218;28;20217;-61
2021/09/22 05:12:29;;;;;;;15.60;14.10;;;7.10;99.90;;;7.72;84.79;99166.69;5186427;28;20199;-61
2021/09/22 05:15:03;;;;;;;16.10;14.60;;;7.00;99.90;;;7.68;85.58;99162.97;5186113;28;20206;-60
2021/09/22 05:17:36;;;;;;;15.63;14.23;;;6.90;99.90;;;7.74;85.52;99160.09;5186566;28;20239;-61
2021/09/22 05:20:11;;;;;;;15.23;13.87;;;7.00;99.90;;;7.73;85.35;99163.41;5182866;28;20293;-60
2021/09/22 05:22:44;;;;;;;16.03;14.63;;;7.00;99.90;;;7.80;85.38;99163.16;5183555;28;20200;-60
2021/09/22 05:25:17;;;;;;;15.83;14.27;;;7.00;99.90;;;7.83;84.86;99164.31;5184568;28;20646;-59
2021/09/22 05:27:51;;;;;;;15.97;14.50;;;7.00;99.90;;;7.83;85.40;99160.91;5186360;28;20230;-60
2021/09/22 05:30:25;;;;;;;16.43;14.93;;;7.00;99.90;;;7.83;84.98;99165.97;5184112;28;20216;-59
2021/09/22 05:32:58;;;;;;;17.30;15.70;;;7.00;99.90;;;7.81;85.94;99162.41;5181744;28;20194;-61
2021/09/22 05:35:50;;;;;;;15.13;13.77;;;7.00;99.90;;;7.92;85.12;99166.78;5177828;28;20289;-59
2021/09/22 05:38:23;;;;;;;15.97;14.47;;;7.10;99.90;;;8.03;85.64;99176.28;5182547;28;20222;-60
2021/09/22 05:40:56;;;;;;;16.53;14.93;;;7.20;99.90;;;8.02;85.12;99176.16;5175044;28;20302;-60
2021/09/22 05:43:31;;;;;;;15.37;13.97;;;7.20;99.90;;;8.09;84.94;99174.25;5180786;28;20201;-58
2021/09/22 05:46:04;;;;;;;15.03;13.63;;;7.30;99.90;;;8.15;85.47;99173.00;5181766;28;20788;-60
2021/09/22 05:48:37;;;;;;;15.57;14.10;;;7.40;99.90;;;8.25;85.35;99167.97;5183871;28;20284;-57
2021/09/22 05:51:10;;;;;;;14.57;13.27;;;7.50;99.90;;;8.34;84.03;99169.66;5175315;28;20195;-61
2021/09/22 05:53:44;;;;;;;15.17;13.67;;;7.50;99.90;;;8.38;84.19;99175.91;5178288;28;20212;-59
2021/09/22 05:56:17;;;;;;;14.90;13.57;;;7.60;99.90;;;8.42;83.77;99172.91;5176339;28;20268;-60
2021/09/22 05:58:52;;;;;;;14.50;13.10;;;7.60;99.90;;;8.46;82.88;99168.97;5176824;28;20233;-60
2021/09/22 06:01:25;;;;;;;15.23;13.90;;;7.50;99.90;;;8.43;82.81;99171.25;5182642;28;20296;-58
2021/09/22 06:03:58;;;;;;;15.20;13.90;;;7.50;99.90;;;8.46;83.00;99167.31;5182439;28;20288;-60
2021/09/22 06:06:32;;;;;;;15.97;14.47;;;7.60;99.90;;;8.56;83.68;99167.34;5182966;28;20262;-57
2021/09/22 06:09:05;;;;;;;15.27;13.87;;;7.80;99.90;;;8.62;82.42;99163.56;5183480;28;20690;-58
2021/09/22 06:11:39;;;;;;;15.67;14.07;;;7.80;99.90;;;8.71;81.92;99162.66;5183173;28;20241;-57
2021/09/22 06:14:14;;;;;;;15.73;14.10;;;7.80;99.90;;;8.90;80.70;99169.31;5183861;28;20205;-59
2021/09/22 06:16:47;;;;;;;14.97;13.60;;;7.80;99.90;;;9.03;81.20;99167.94;5181660;28;20309;-59
2021/09/22 06:19:20;;;;;;;15.07;13.70;;;7.90;99.90;;;9.25;80.32;99164.66;5181107;28;20229;-56
2021/09/22 06:21:53;;;;;;;15.10;13.70;;;8.10;99.90;;;9.44;79.37;99173.06;5182509;28;20198;-58
2021/09/22 06:24:42;;;;;;;15.23;13.87;;;8.20;99.90;;;9.67;78.70;99168.91;5182156;28;20237;-60
2021/09/22 06:27:15;;;;;;;14.73;13.33;;;8.40;99.90;;;9.72;77.95;99174.41;5180589;28;20213;-59
2021/09/22 06:29:49;;;;;;;14.30;12.90;;;8.60;99.90;;;10.12;77.30;99164.09;5180532;28;20620;-59
2021/09/22 06:32:23;;;;;;;14.63;13.33;;;8.90;99.90;;;10.47;76.11;99157.44;5180908;28;20204;-60
2021/09/22 06:34:56;;;;;;;15.20;13.83;;;9.20;99.90;;;10.88;74.64;99162.34;5180977;28;20294;-60
2021/09/22 06:37:29;;;;;;;14.30;13.07;;;9.50;99.90;;;10.98;72.58;99157.16;5180634;28;20198;-59
2021/09/22 06:40:03;;;;;;;14.00;12.60;;;9.50;99.90;;;11.27;71.71;99160.25;5183529;28;20655;-55
2021/09/22 06:42:37;;;;;;;15.05;13.75;;;9.70;99.90;;;11.28;70.35;99161.16;5182721;28;20225;-57
2021/09/22 06:45:12;;;;;;;14.18;13.02;;;9.70;99.90;;;11.35;70.67;99165.94;5182819;28;20198;-56
2021/09/22 06:47:45;;;;;;;14.80;13.60;;;9.70;99.90;;;11.40;71.40;99166.28;5180505;28;21490;-58
2021/09/22 06:50:18;;;;;;;13.50;12.30;;;9.80;99.90;;;11.76;70.65;99167.22;5182546;28;20326;-59
2021/09/22 06:52:52;;;;;;;14.80;13.38;;;10.10;99.90;;;12.27;69.02;99175.25;5181261;28;20217;-58
2021/09/22 06:55:25;;;;;;;14.63;13.43;;;10.50;99.90;;;12.30;69.80;99179.72;5180770;28;20203;-60
2021/09/22 06:57:58;;;;;;;15.02;13.63;;;10.70;99.90;;;12.50;69.33;99174.34;5181174;28;20221;-57
2021/09/22 07:00:33;;;;;;;15.38;13.98;;;10.90;99.90;;;12.63;67.39;99178.66;5180069;28;20205;-60
2021/09/22 07:03:11;;;;;;;14.40;13.10;;;11.10;99.90;;;12.55;67.25;99175.56;5179327;28;20194;-60
2021/09/22 07:05:45;;;;;;;14.50;13.07;;;11.10;99.90;;;12.54;68.23;99181.47;5181684;28;20210;-60
2021/09/22 07:08:19;;;;;;;14.38;13.15;;;11.20;99.90;;;12.67;68.19;99183.22;5181452;28;20320;-60
2021/09/22 07:10:52;;;;;;;14.77;13.35;;;11.20;99.90;;;12.79;67.89;99178.97;5182628;28;20206;-58
2021/09/22 07:13:25;;;;;;;13.93;12.70;;;11.50;99.90;;;12.80;67.33;99184.97;5182090;28;20297;-59
2021/09/22 07:16:00;;;;;;;14.73;13.50;;;11.50;99.90;;;13.02;66.78;99177.06;5182219;28;20667;-58
2021/09/22 07:18:33;;;;;;;16.30;14.80;;;11.60;99.90;;;13.12;66.33;99178.59;5181670;28;20222;-57
2021/09/22 07:21:06;;;;;;;16.63;15.13;;;11.90;99.90;;;13.29;65.08;99185.81;5182331;28;20677;-58
2021/09/22 07:23:39;;;;;;;17.63;16.02;;;11.90;99.90;;;13.03;65.76;99184.00;5180986;28;20213;-62
2021/09/22 07:26:13;;;;;;;18.90;16.90;;;11.60;99.90;;;12.95;65.97;99188.59;5183431;28;20202;-63
2021/09/22 07:28:46;;;;;;;16.33;14.85;;;11.60;99.90;;;12.90;67.41;99189.06;5181461;28;20238;-63
2021/09/22 07:31:21;;;;;;;18.08;16.35;;;11.80;99.90;;;12.83;66.04;99190.31;5182600;28;20202;-63
2021/09/22 07:33:54;;;;;;;18.15;16.42;;;11.60;99.90;;;12.87;67.37;99186.28;5182308;28;20256;-64
2021/09/22 07:36:27;;;;;;;17.90;16.30;;;11.60;99.90;;;12.80;67.41;99190.13;5182561;28;20591;-61
2021/09/22 07:39:00;;;;;;;17.48;15.80;;;11.70;99.90;;;12.80;68.07;99184.97;5182315;28;20221;-58
2021/09/22 07:41:33;;;;;;;17.05;15.55;;;11.60;99.90;;;12.82;68.66;99183.44;5182016;28;20202;-60
2021/09/22 07:44:06;;;;;;;16.58;15.02;;;11.70;99.90;;;12.90;66.28;99183.94;5177850;28;20206;-57
2021/09/22 07:46:40;;;;;;;16.83;15.32;;;11.70;99.90;;;12.70;67.70;99186.00;5181120;28;20206;-59
2021/09/22 07:49:13;;;;;;;17.15;15.52;;;11.40;99.90;;;12.59;68.57;99186.91;5180961;28;20673;-59
2021/09/22 07:51:46;;;;;;;17.15;15.55;;;11.30;99.90;;;12.62;68.39;99180.34;5181740;28;20210;-59
2021/09/22 07:54:19;;;;;;;16.00;14.50;;;11.40;99.90;;;12.70;68.77;99179.97;5182351;28;20202;-57
2021/09/22 07:56:53;;;;;;;17.38;15.68;;;11.50;99.90;;;12.76;68.43;99182.97;5181900;28;20577;-57
2021/09/22 07:59:26;;;;;;;16.92;15.23;;;11.70;99.90;;;12.79;68.21;99178.03;5181115;28;20682;-60
2021/09/22 08:02:04;;;;;;;17.02;15.43;;;11.70;99.90;;;12.98;68.29;99178.53;5178853;28;20666;-60
2021/09/22 08:04:37;;;;;;;17.35;15.65;;;11.90;99.90;;;12.93;68.51;99177.31;5181654;28;20606;-58
2021/09/22 08:07:15;;;;;;;16.90;15.18;;;11.90;99.90;;;13.18;67.89;99181.59;5184187;28;20198;-59
2021/09/22 08:09:48;;;;;;;16.30;14.90;;;12.10;99.90;;;13.43;68.03;99177.34;5185091;28;20226;-58
2021/09/22 08:12:21;;;;;;;17.63;16.02;;;12.40;99.90;;;13.43;67.76;99176.47;5186049;28;20209;-58
2021/09/22 08:14:55;;;;;;;16.08;14.70;;;12.50;99.90;;;13.72;67.66;99174.16;5182211;28;20199;-59
2021/09/22 08:17:30;;;;;;;17.55;15.75;;;12.70;99.90;;;13.82;nan;99178.22;5182780;28;22001;-56
2021/09/22 08:20:04;;;;;;;15.20;13.80;;;12.90;99.90;;;14.19;66.72;99181.50;5185313;28;20800;-59
2021/09/22 08:22:37;;;;;;;15.20;13.90;;;13.30;99.90;;;14.57;64.98;99177.03;5185259;28;20206;-59
2021/09/22 08:25:11;;;;;;;16.05;14.70;;;13.60;99.90;;;14.94;64.25;99176.75;5186120;28;20209;-58
2021/09/22 08:27:44;;;;;;;17.00;15.45;;;14.10;99.90;;;15.10;63.24;99182.00;5185199;28;20330;-60
2021/09/22 08:30:17;;;;;;;15.77;14.38;;;14.20;99.90;;;15.39;61.25;99173.44;5185922;28;20219;-60
2021/09/22 08:32:51;;;;;;;15.77;14.25;;;14.50;99.90;;;15.47;61.26;99176.47;5185732;28;20210;-56
2021/09/22 08:35:25;;;;;;;14.10;12.82;;;14.50;99.90;;;15.68;59.01;99179.44;5185755;28;20206;-59
2021/09/22 08:37:58;;;;;;;15.90;14.40;;;14.70;99.90;;;15.89;58.13;99179.81;5184821;28;20222;-59
2021/09/22 08:40:31;;;;;;;14.90;13.60;;;14.90;99.90;;;16.09;57.66;99189.59;5185003;28;20305;-60
2021/09/22 08:43:04;;;;;;;14.50;13.27;;;15.20;99.90;;;16.21;57.97;99177.38;5182071;28;20205;-60
2021/09/22 08:45:39;;;;;;;15.00;13.77;;;15.30;99.90;;;16.34;56.62;99173.78;5185679;28;20210;-60
2021/09/22 08:48:13;;;;;;;15.25;13.95;;;15.40;99.90;;;16.47;56.08;99174.47;5185000;28;20232;-58
2021/09/22 08:50:49;;;;;;;16.08;14.68;;;15.60;99.90;;;16.67;54.83;99179.91;5182028;28;20226;-58
2021/09/22 08:53:22;;;;;;;13.13;11.95;;;15.60;99.90;;;16.77;54.16;99181.34;5181936;28;20587;-61
2021/09/22 08:55:55;;;;;;;13.80;12.60;;;15.70;99.90;;;16.78;53.24;99172.78;5184611;28;20209;-60
2021/09/22 08:58:29;;;;;;;13.85;12.65;;;15.80;99.90;;;16.88;53.39;99174.13;5184005;28;20224;-60
2021/09/22 09:01:13;;;;;;;13.77;12.65;;;15.80;99.90;;;16.98;53.47;99172.97;5185143;28;20194;-60
2021/09/22 09:03:50;;;;;;;13.18;12.07;;;15.90;99.90;;;17.03;52.86;99169.81;5185261;28;20294;-59
2021/09/22 09:06:27;;;;;;;12.52;11.32;;;16.00;99.70;;;17.25;51.59;99176.97;5184885;28;20208;-61
2021/09/22 09:09:00;;;;;;;12.60;11.50;;;16.30;98.60;;;17.27;49.47;99174.47;5183810;28;20312;-59
2021/09/22 09:11:36;;;;;;;12.15;11.13;;;16.00;97.20;;;17.20;50.84;99169.81;5180897;28;20229;-60
2021/09/22 09:14:12;;;;;;;11.52;10.63;;;16.10;98.10;;;17.17;49.90;99167.03;5183534;28;20201;-60
2021/09/22 09:16:48;;;;;;;11.88;10.88;;;16.20;97.30;;;17.45;47.86;99169.34;5180341;28;20210;-60
2021/09/22 09:19:25;;;;;;;12.07;10.88;;;16.50;95.70;;;17.58;47.95;99155.38;5181392;28;20218;-60
2021/09/22 09:22:01;;;;;;;11.88;10.88;;;16.80;95.80;;;17.74;46.74;99157.88;5184099;28;20201;-60
2021/09/22 09:24:40;;;;;;;11.30;10.38;;;16.90;94.70;;;17.77;47.27;99153.78;5184843;28;20197;-60
2021/09/22 09:27:34;;;;;;;11.13;10.23;;;17.00;95.00;;;18.05;46.97;99142.19;5184178;28;20207;-60
2021/09/22 09:30:20;;;;;;;10.98;10.07;;;17.20;95.30;;;18.05;47.04;99139.63;5184242;28;20232;-60
2021/09/22 09:32:54;;;;;;;10.80;10.00;;;17.20;95.10;;;17.80;47.67;99147.91;5184563;28;20290;-60
2021/09/22 09:35:28;;;;;;;10.50;9.70;;;17.00;95.40;;;17.91;47.77;99136.38;5182142;28;20245;-60
2021/09/22 09:38:01;;;;;;;10.02;9.20;;;17.10;95.40;;;18.01;48.00;99138.59;5181629;28;20711;-61
2021/09/22 09:40:37;;;;;;;9.18;8.43;;;17.20;95.30;;;17.92;48.17;99132.97;5184489;28;20290;-59
2021/09/22 09:43:10;;;;;;;9.15;8.45;;;17.20;95.10;;;18.13;47.51;99134.81;5184380;28;20212;-60
2021/09/22 09:45:45;;;;;;;9.15;8.35;;;17.50;95.20;;;18.40;46.00;99141.31;5179483;28;20313;-60
2021/09/22 09:48:21;;;;;;;9.38;8.57;;;17.70;94.20;;;18.27;47.47;99136.34;5182472;28;20214;-60
2021/09/22 09:51:00;;;;;;;9.23;8.43;;;17.60;95.10;;;18.48;48.29;99130.41;5183894;28;20268;-61
2021/09/22 09:53:35;;;;;;;8.90;8.23;;;17.70;95.90;;;18.70;48.54;99122.81;5183345;28;20198;-60
2021/09/22 09:56:19;;;;;;;9.20;8.40;;;18.00;95.90;;;19.01;47.40;99122.50;5183790;28;20210;-60
2021/09/22 09:58:58;;;;;;;9.52;8.70;;;18.20;94.90;;;19.35;46.10;99114.47;5183217;28;20214;-61
2021/09/22 10:01:41;;;;;;;9.38;8.50;;;18.50;94.40;;;19.39;45.98;99114.63;5183611;28;20209;-60
2021/09/22 10:04:18;;;;;;;9.75;9.00;;;18.50;94.40;;;19.08;46.45;99114.16;5182075;28;20199;-59
2021/09/22 10:06:54;;;;;;;8.82;8.13;;;18.40;94.10;;;19.34;45.30;99104.94;5182129;28;20203;-60
2021/09/22 10:09:27;;;;;;;11.48;8.10;;;18.50;93.60;;;19.21;47.28;99107.81;5183228;28;20796;-59
2021/09/22 10:12:00;;;;;;;8.98;8.27;;;18.40;95.20;;;19.12;46.65;99099.66;5182986;28;20570;-59
2021/09/22 10:14:33;;;;;;;8.48;7.78;;;18.20;94.50;;;19.28;46.18;99094.28;5183412;28;20289;-58
2021/09/22 10:17:07;;;;;;;8.20;7.47;;;18.40;94.40;;;19.38;46.49;99099.88;5178902;28;20198;-59
2021/09/22 10:19:43;;;;;;;8.57;7.78;;;18.50;94.40;;;19.16;47.57;99092.91;5181260;28;20494;-59
2021/09/22 10:22:17;;;;;;;7.90;7.30;;;18.40;95.00;;;19.33;47.04;99092.78;5182531;28;20191;-59
2021/09/22 10:24:51;;;;;;;7.53;6.93;;;18.50;94.80;;;19.41;46.97;99100.00;5183860;28;20293;-61
2021/09/22 10:27:24;;;;;;;7.95;7.25;;;18.50;94.70;;;19.29;47.46;99083.13;5184675;28;20203;-60
2021/09/22 10:30:01;;;;;;;7.72;7.13;;;18.60;95.20;;;19.30;47.75;99082.28;5180747;28;20198;-59
2021/09/22 10:32:38;;;;;;;7.25;6.65;;;18.50;95.00;;;19.35;48.42;99083.38;5181505;28;20202;-60
2021/09/22 10:35:39;;;;;;;6.97;6.47;;;18.60;96.00;;;19.42;48.96;99079.31;5184235;28;20202;-61
2021/09/22 10:38:46;;;;;;;8.18;7.47;;;18.80;95.80;;;19.41;48.86;99079.28;5182357;28;20316;-61
2021/09/22 10:41:28;;;;;;;6.38;5.80;;;18.60;95.90;;;19.67;46.88;99078.66;5183426;28;20198;-61
2021/09/22 10:44:02;;;;;;;6.32;5.70;;;18.80;95.00;;;19.64;47.43;99072.44;5183387;28;20195;-61
2021/09/22 10:46:35;;;;;;;6.57;6.07;;;18.80;95.00;;;19.89;46.76;99082.13;5183271;28;20702;-60